Time;durP1;ratioP1;P1;durP2;ratioP2;P2;SDS_P1;SDS_P2;PMS_P1;PMS_P2;Temp;Humidity;BMP_temperature;BMP_pressure;BME280_temperature;BME280_humidity;BME280_pressure;Samples;Min_cycle;Max_cycle;Signal;HPM_P1;HPM_P2
2022/07/27 00:01:15;;;;;;;7.63;2.00;;;;;;;18.03;67.52;101386.69;5013938;28;20069;-77
2022/07/27 00:03:44;;;;;;;8.65;2.20;;;;;;;17.90;68.02;101389.44;5041156;28;20046;-78
2022/07/27 00:06:12;;;;;;;16.98;8.02;;;;;;;17.69;69.20;101385.13;5029626;28;20880;-78
2022/07/27 00:08:39;;;;;;;11.68;2.22;;;;;;;17.73;69.41;101386.84;5023925;28;20057;-78
2022/07/27 00:11:08;;;;;;;5.10;1.92;;;;;;;17.74;69.41;101390.47;5033380;28;20054;-77
2022/07/27 00:13:35;;;;;;;11.02;2.42;;;;;;;17.71;69.87;101385.59;5029941;28;20496;-77
2022/07/27 00:16:03;;;;;;;8.32;1.90;;;;;;;17.94;68.91;101384.81;5024416;28;20800;-78
2022/07/27 00:18:31;;;;;;;6.60;2.10;;;;;;;18.25;67.77;101377.84;5022488;28;20038;-79
2022/07/27 00:20:58;;;;;;;11.88;1.95;;;;;;;18.37;67.55;101378.69;5015065;28;20497;-79
2022/07/27 00:23:26;;;;;;;8.93;2.20;;;;;;;18.09;68.34;101376.91;5031337;28;20103;-78
2022/07/27 00:25:53;;;;;;;8.70;2.15;;;;;;;18.28;67.66;101374.38;5019620;28;20064;-79
2022/07/27 00:28:20;;;;;;;7.90;2.50;;;;;;;17.91;69.19;101379.09;5034437;28;20041;-79
2022/07/27 00:30:48;;;;;;;10.50;2.30;;;;;;;17.89;69.25;101375.84;5021450;28;20054;-78
2022/07/27 00:33:15;;;;;;;8.13;2.08;;;;;;;18.01;69.19;101378.66;5032512;28;20755;-78
2022/07/27 00:35:44;;;;;;;8.20;2.17;;;;;;;18.28;68.35;101377.97;5059163;28;20064;-78
2022/07/27 00:38:11;;;;;;;9.23;2.25;;;;;;;18.03;69.16;101375.53;5038573;28;20056;-79
2022/07/27 00:40:38;;;;;;;10.88;2.38;;;;;;;17.98;69.48;101380.19;5025165;28;20088;-77
2022/07/27 00:43:05;;;;;;;9.38;2.22;;;;;;;17.77;70.52;101381.41;5048924;28;20049;-78
2022/07/27 00:45:33;;;;;;;7.60;2.15;;;;;;;17.83;70.71;101380.88;5034397;28;20049;-78
2022/07/27 00:48:00;;;;;;;9.18;2.15;;;;;;;17.86;70.56;101374.59;5031595;28;20060;-79
2022/07/27 00:50:28;;;;;;;7.78;2.10;;;;;;;17.95;70.54;101372.50;5030723;28;20053;-78
2022/07/27 00:52:55;;;;;;;8.05;2.58;;;;;;;17.91;70.39;101371.56;5033505;28;20057;-78
2022/07/27 00:55:23;;;;;;;8.38;2.53;;;;;;;18.00;69.91;101368.66;5019063;28;20057;-79
2022/07/27 00:57:50;;;;;;;11.05;2.75;;;;;;;18.17;69.91;101371.22;5026528;28;20417;-78
2022/07/27 01:00:26;;;;;;;10.13;2.95;;;;;;;17.98;70.05;101360.66;5025042;28;20049;-78
2022/07/27 01:02:54;;;;;;;11.95;2.58;;;;;;;17.67;71.49;101365.97;5036405;28;20054;-78
2022/07/27 01:05:24;;;;;;;8.48;2.53;;;;;;;17.64;72.08;101360.25;5024241;28;20052;-77
2022/07/27 01:08:04;;;;;;;9.32;2.47;;;;;;;17.76;71.64;101358.31;5016924;28;20038;-78
2022/07/27 01:10:31;;;;;;;11.05;3.30;;;;;;;17.56;72.35;101361.16;5050055;28;20064;-77
2022/07/27 01:12:59;;;;;;;6.53;2.22;;;;;;;17.88;71.83;101363.91;5041454;28;20069;-78
2022/07/27 01:15:26;;;;;;;8.63;2.25;;;;;;;17.90;71.25;101360.78;5038033;28;20065;-78
2022/07/27 01:17:53;;;;;;;11.15;2.30;;;;;;;17.73;71.67;101364.56;5027240;28;20050;-79
2022/07/27 01:20:21;;;;;;;11.75;2.90;;;;;;;17.99;70.79;101362.28;5038641;28;20065;-78
2022/07/27 01:22:48;;;;;;;10.00;2.70;;;;;;;17.92;71.18;101347.31;5044677;28;20053;-78
2022/07/27 01:25:15;;;;;;;11.15;2.60;;;;;;;17.78;71.75;101350.41;5029617;28;20601;-78
2022/07/27 01:27:43;;;;;;;24.58;3.03;;;;;;;17.76;72.27;101352.75;5022998;28;20045;-78
2022/07/27 01:30:26;;;;;;;9.82;3.08;;;;;;;17.80;72.52;101352.88;5035664;28;20053;-79
2022/07/27 01:33:00;;;;;;;14.05;2.95;;;;;;;17.84;72.04;101351.81;5029248;28;20072;-78
2022/07/27 01:35:28;;;;;;;15.73;2.88;;;;;;;17.83;72.61;101343.81;5035123;28;20053;-79
2022/07/27 01:37:55;;;;;;;12.38;2.97;;;;;;;17.92;71.70;101350.09;5032991;28;20049;-78
2022/07/27 01:40:23;;;;;;;11.70;3.20;;;;;;;17.83;72.38;101347.41;5037916;28;20053;-78
2022/07/27 01:42:51;;;;;;;10.95;2.50;;;;;;;17.99;71.47;101341.97;5027938;28;20046;-78
2022/07/27 01:45:19;;;;;;;6.22;2.30;;;;;;;17.91;71.57;101343.69;5034277;28;20053;-78
2022/07/27 01:47:46;;;;;;;11.65;2.55;;;;;;;18.21;70.69;101340.66;5034185;28;20058;-78
2022/07/27 01:50:14;;;;;;;14.05;2.22;;;;;;;18.04;70.85;101347.31;5029237;28;20056;-78
2022/07/27 01:52:41;;;;;;;10.23;2.45;;;;;;;18.04;70.82;101347.31;5031591;28;20070;-78
2022/07/27 01:55:09;;;;;;;13.32;2.28;;;;;;;17.92;71.63;101341.72;5032344;28;20058;-79
2022/07/27 01:57:37;;;;;;;7.47;2.42;;;;;;;17.80;71.89;101344.50;5030756;28;20065;-78
2022/07/27 02:00:10;;;;;;;11.43;2.72;;;;;;;17.76;72.31;101340.78;5032171;28;20054;-78
2022/07/27 02:02:40;;;;;;;6.63;2.38;;;;;;;17.60;72.52;101337.84;5024266;28;20060;-69
2022/07/27 02:05:10;;;;;;;10.90;2.90;;;;;;;17.45;73.19;101338.47;5024990;28;20065;-69
2022/07/27 02:07:39;;;;;;;8.90;2.70;;;;;;;17.40;73.54;101333.13;5026897;28;20049;-68
2022/07/27 02:10:08;;;;;;;8.15;3.13;;;;;;;17.45;73.73;101335.69;5019820;28;20050;-68
2022/07/27 02:12:36;;;;;;;7.50;2.58;;;;;;;17.51;73.22;101333.53;5034114;28;20046;-69
2022/07/27 02:15:12;;;;;;;14.43;2.80;;;;;;;17.73;72.47;101331.13;5007633;28;20041;-68
2022/07/27 02:17:42;;;;;;;6.57;2.80;;;;;;;17.42;73.31;101335.56;5006416;28;20060;-78
2022/07/27 02:20:13;;;;;;;12.13;3.55;;;;;;;17.07;75.20;101331.53;5023663;28;20064;-78
2022/07/27 02:22:41;;;;;;;8.27;2.30;;;;;;;17.24;75.17;101337.75;5023573;28;20041;-69
2022/07/27 02:25:09;;;;;;;12.38;3.42;;;;;;;17.23;75.20;101340.84;5032210;28;20054;-68
2022/07/27 02:27:38;;;;;;;12.38;2.78;;;;;;;17.47;74.04;101336.19;5034448;28;20052;-69
2022/07/27 02:30:06;;;;;;;9.05;2.47;;;;;;;17.46;73.90;101334.56;5026003;28;20401;-69
2022/07/27 02:32:33;;;;;;;10.50;2.65;;;;;;;17.61;73.25;101341.44;5016275;28;20050;-69
2022/07/27 02:35:02;;;;;;;8.65;2.50;;;;;;;17.91;72.34;101337.31;5026985;28;20061;-69
2022/07/27 02:37:47;;;;;;;9.15;2.70;;;;;;;17.89;71.85;101340.44;5034470;28;20057;-69
2022/07/27 02:40:16;;;;;;;12.98;2.92;;;;;;;17.76;72.32;101346.34;5047970;28;20052;-78
2022/07/27 02:42:45;;;;;;;10.95;2.40;;;;;;;17.97;71.89;101347.06;5075896;28;20503;-78
2022/07/27 02:45:14;;;;;;;10.85;3.15;;;;;;;18.10;71.00;101350.69;5023762;28;20506;-69
2022/07/27 02:47:42;;;;;;;10.40;2.50;;;;;;;18.23;70.01;101350.31;5027635;28;20492;-69
2022/07/27 02:50:10;;;;;;;11.05;3.10;;;;;;;18.07;70.82;101351.34;5053038;28;20078;-68
2022/07/27 02:52:38;;;;;;;11.02;2.50;;;;;;;17.72;71.76;101342.63;5028870;28;20069;-69
2022/07/27 02:55:06;;;;;;;9.40;2.35;;;;;;;17.77;71.98;101336.81;5026595;28;20053;-76
2022/07/27 02:57:36;;;;;;;9.43;2.53;;;;;;;17.82;72.00;101342.16;5048380;28;20523;-77
2022/07/27 03:00:05;;;;;;;8.88;2.70;;;;;;;17.81;71.82;101338.59;5037494;28;20050;-78
2022/07/27 03:02:33;;;;;;;11.07;2.92;;;;;;;17.56;72.50;101336.91;5034199;28;20517;-78
2022/07/27 03:05:00;;;;;;;12.43;2.72;;;;;;;17.51;73.10;101342.72;5027027;28;20052;-77
2022/07/27 03:07:28;;;;;;;10.40;2.75;;;;;;;17.55;72.67;101338.09;5021165;28;20408;-69
2022/07/27 03:09:55;;;;;;;11.27;2.60;;;;;;;17.61;72.37;101333.91;5026652;28;20065;-69
2022/07/27 03:12:23;;;;;;;11.20;2.72;;;;;;;17.57;72.44;101338.53;5029249;28;20424;-69
2022/07/27 03:14:50;;;;;;;11.60;2.50;;;;;;;17.75;71.63;101333.56;5051301;28;20053;-79
2022/07/27 03:17:17;;;;;;;12.52;3.30;;;;;;;17.62;71.62;101334.72;5022785;28;20068;-78
2022/07/27 03:19:45;;;;;;;13.00;2.85;;;;;;;17.72;71.30;101334.25;5032384;28;20069;-78
2022/07/27 03:22:12;;;;;;;11.98;2.92;;;;;;;17.44;71.79;101324.88;5030416;28;20053;-77
2022/07/27 03:24:39;;;;;;;9.48;2.53;;;;;;;17.47;72.44;101327.03;5057239;28;20057;-77
2022/07/27 03:27:07;;;;;;;8.40;2.75;;;;;;;17.48;71.93;101332.25;5014525;28;20655;-68
2022/07/27 03:29:34;;;;;;;12.90;2.85;;;;;;;17.66;71.47;101322.53;5036232;28;20041;-78
2022/07/27 03:32:01;;;;;;;10.90;2.80;;;;;;;17.70;71.19;101326.25;5015515;28;20388;-78
2022/07/27 03:34:29;;;;;;;11.10;3.28;;;;;;;17.83;70.69;101327.91;5045109;28;20108;-78
2022/07/27 03:36:56;;;;;;;11.07;2.88;;;;;;;17.78;70.72;101332.88;5028395;28;20057;-68
2022/07/27 03:39:23;;;;;;;14.93;3.28;;;;;;;17.39;71.55;101339.03;5032123;28;20404;-68
2022/07/27 03:41:50;;;;;;;11.82;3.40;;;;;;;17.29;71.82;101337.50;5027295;28;20480;-68
2022/07/27 03:44:18;;;;;;;11.10;2.72;;;;;;;17.29;71.47;101334.72;5030827;28;20065;-77
2022/07/27 03:46:45;;;;;;;11.73;3.05;;;;;;;17.42;71.08;101336.38;5028697;28;20064;-77
2022/07/27 03:49:12;;;;;;;13.55;3.10;;;;;;;17.48;70.95;101331.44;5004580;28;20046;-78
2022/07/27 03:51:41;;;;;;;16.73;3.72;;;;;;;17.52;70.79;101335.97;5049289;28;20061;-78
2022/07/27 03:54:09;;;;;;;12.80;3.20;;;;;;;17.28;71.79;101332.25;5031748;28;20061;-78
2022/07/27 03:56:36;;;;;;;15.05;3.17;;;;;;;17.38;71.28;101332.66;5067057;28;20057;-69
2022/07/27 03:59:04;;;;;;;11.90;3.42;;;;;;;17.36;71.08;101335.00;5028875;28;20057;-77
2022/07/27 04:01:32;;;;;;;18.60;2.97;;;;;;;17.37;70.87;101336.59;5015909;28;20057;-78
2022/07/27 04:04:00;;;;;;;11.02;2.72;;;;;;;17.26;70.90;101332.59;5014246;28;20525;-77
2022/07/27 04:06:27;;;;;;;12.30;2.72;;;;;;;17.37;70.41;101333.00;5039396;28;20057;-78
2022/07/27 04:08:55;;;;;;;14.20;3.25;;;;;;;17.37;70.33;101331.03;5023358;28;20046;-78
2022/07/27 04:11:36;;;;;;;8.30;2.83;;;;;;;17.56;69.49;101325.75;5045924;28;20058;-78
2022/07/27 04:14:18;;;;;;;12.52;2.88;;;;;;;17.57;68.90;101326.59;5029008;28;20064;-79
2022/07/27 04:16:46;;;;;;;16.17;2.58;;;;;;;17.51;69.38;101331.56;5023610;28;20431;-77
2022/07/27 04:19:14;;;;;;;10.35;2.63;;;;;;;17.53;68.77;101334.81;5033460;28;20408;-78
2022/07/27 04:21:45;;;;;;;12.85;2.97;;;;;;;17.34;69.42;101330.91;5041464;28;20053;-78
2022/07/27 04:24:15;;;;;;;11.45;3.15;;;;;;;17.19;69.76;101329.56;5062305;28;20061;-78
2022/07/27 04:26:48;;;;;;;14.05;3.60;;;;;;;17.18;69.88;101325.16;5014435;28;20057;-78
2022/07/27 04:29:16;;;;;;;13.65;3.35;;;;;;;17.18;69.45;101327.13;5016137;28;20050;-77
2022/07/27 04:31:48;;;;;;;19.77;3.95;;;;;;;17.20;69.32;101335.97;5016440;28;20066;-77
2022/07/27 04:34:16;;;;;;;11.88;3.28;;;;;;;17.20;69.12;101331.22;5030001;28;20057;-78
2022/07/27 04:36:43;;;;;;;14.93;3.45;;;;;;;16.93;69.90;101336.56;5023014;28;20052;-78
2022/07/27 04:39:11;;;;;;;15.25;3.25;;;;;;;17.09;69.60;101338.34;5033980;28;20042;-78
2022/07/27 04:41:39;;;;;;;10.70;3.33;;;;;;;17.16;69.07;101335.84;5038246;28;20049;-78
2022/07/27 04:44:07;;;;;;;15.05;3.28;;;;;;;17.26;68.58;101337.38;5021476;28;20497;-78
2022/07/27 04:46:42;;;;;;;12.63;3.15;;;;;;;17.05;69.23;101337.41;5050552;28;20057;-78
2022/07/27 04:49:09;;;;;;;13.98;3.22;;;;;;;17.15;68.95;101341.75;5047522;28;20055;-78
2022/07/27 04:51:41;;;;;;;10.30;2.42;;;;;;;16.82;69.30;101333.38;5055188;28;20053;-78
2022/07/27 04:54:10;;;;;;;9.40;2.72;;;;;;;16.67;70.42;101332.00;5050749;28;20053;-77
2022/07/27 04:56:38;;;;;;;11.25;3.15;;;;;;;16.68;70.24;101332.84;5016059;28;20050;-78
2022/07/27 04:59:05;;;;;;;11.52;3.03;;;;;;;16.75;69.98;101344.25;5027230;28;20050;-79
2022/07/27 05:01:36;;;;;;;11.95;2.65;;;;;;;16.81;69.65;101334.50;5021516;28;20045;-78
2022/07/27 05:04:05;;;;;;;13.77;3.47;;;;;;;16.77;69.65;101334.38;5016279;28;20050;-78
2022/07/27 05:06:32;;;;;;;13.32;2.80;;;;;;;16.63;70.05;101335.81;5033975;28;20054;-77
2022/07/27 05:08:59;;;;;;;12.27;3.20;;;;;;;16.69;69.97;101338.06;5040756;28;20060;-79
2022/07/27 05:11:27;;;;;;;16.65;3.83;;;;;;;16.57;70.80;101345.50;5034286;28;20049;-78
2022/07/27 05:13:54;;;;;;;15.10;3.20;;;;;;;16.70;70.40;101347.22;5034183;28;20096;-78
2022/07/27 05:16:21;;;;;;;12.38;3.17;;;;;;;16.96;69.07;101345.03;5026653;28;20054;-78
2022/07/27 05:18:56;;;;;;;21.17;3.80;;;;;;;16.89;69.12;101345.56;5028261;28;20050;-78
2022/07/27 05:21:24;;;;;;;17.00;3.47;;;;;;;16.97;68.71;101346.66;5023307;28;20046;-79
2022/07/27 05:23:51;;;;;;;26.25;4.03;;;;;;;17.03;68.55;101350.88;5030358;28;20527;-79
2022/07/27 05:26:21;;;;;;;12.60;3.35;;;;;;;17.08;68.06;101347.88;5038801;28;20416;-75
2022/07/27 05:28:48;;;;;;;15.77;3.40;;;;;;;17.31;67.48;101354.66;5028681;28;20053;-79
2022/07/27 05:31:15;;;;;;;14.65;3.50;;;;;;;17.27;67.56;101350.13;5025597;28;20053;-78
2022/07/27 05:33:43;;;;;;;14.02;3.65;;;;;;;17.09;67.58;101354.22;5040236;28;20065;-77
2022/07/27 05:36:15;;;;;;;15.98;3.38;;;;;;;17.09;67.04;101355.06;5030404;28;20053;-76
2022/07/27 05:38:43;;;;;;;17.88;2.97;;;;;;;16.97;68.03;101354.19;5035379;28;20058;-75
2022/07/27 05:41:10;;;;;;;13.95;3.05;;;;;;;17.07;67.73;101353.78;5020263;28;20042;-74
2022/07/27 05:43:38;;;;;;;14.98;3.38;;;;;;;17.26;66.69;101356.88;5018362;28;20056;-76
2022/07/27 05:46:05;;;;;;;12.32;3.70;;;;;;;17.36;66.46;101360.06;5060122;28;20045;-78
2022/07/27 05:48:32;;;;;;;13.88;3.22;;;;;;;17.24;66.18;101357.22;5068660;28;20055;-77
2022/07/27 05:51:00;;;;;;;12.43;2.90;;;;;;;17.37;65.89;101358.88;5041860;28;20408;-74
2022/07/27 05:53:27;;;;;;;13.35;3.65;;;;;;;17.37;65.95;101370.03;5046266;28;20053;-74
2022/07/27 05:55:54;;;;;;;16.67;3.10;;;;;;;17.25;66.16;101369.97;5035951;28;20505;-70
2022/07/27 05:58:26;;;;;;;11.10;3.03;;;;;;;17.34;66.05;101367.09;5035595;28;20036;-72
2022/07/27 06:00:55;;;;;;;12.27;2.70;;;;;;;17.43;65.40;101359.47;5038381;28;20044;-71
2022/07/27 06:03:22;;;;;;;15.07;3.60;;;;;;;17.55;65.15;101365.13;5041767;28;20049;-71
2022/07/27 06:05:50;;;;;;;11.55;3.42;;;;;;;17.57;65.00;101362.81;5033579;28;20509;-71
2022/07/27 06:08:17;;;;;;;13.48;3.03;;;;;;;17.19;66.03;101362.97;5035729;28;20045;-72
2022/07/27 06:10:45;;;;;;;13.98;3.47;;;;;;;17.78;65.26;101367.13;5038827;28;20042;-72
2022/07/27 06:13:12;;;;;;;10.63;2.70;;;;;;;18.05;64.13;101362.03;5041721;28;20045;-72
2022/07/27 06:15:40;;;;;;;13.18;2.97;;;;;;;18.36;63.86;101367.88;5028197;28;20508;-73
2022/07/27 06:18:13;;;;;;;12.15;3.15;;;;;;;18.47;63.31;101367.06;5034579;28;20436;-72
2022/07/27 06:20:42;;;;;;;10.00;3.83;;;;;;;18.28;63.43;101368.78;5039092;28;20503;-70
2022/07/27 06:23:09;;;;;;;13.05;3.35;;;;;;;18.36;63.83;101368.66;5044834;28;20044;-70
2022/07/27 06:25:37;;;;;;;10.63;3.53;;;;;;;18.33;64.19;101368.53;5034714;28;20052;-72
2022/07/27 06:28:05;;;;;;;12.93;3.53;;;;;;;18.72;63.50;101373.44;5040976;28;20054;-75
2022/07/27 06:30:32;;;;;;;10.27;3.22;;;;;;;18.52;62.28;101375.19;5029120;28;20048;-72
2022/07/27 06:33:03;;;;;;;14.32;3.58;;;;;;;18.54;62.62;101372.88;5026534;28;20054;-71
2022/07/27 06:35:32;;;;;;;10.65;2.97;;;;;;;18.71;61.72;101369.81;5034422;28;20554;-71
2022/07/27 06:38:01;;;;;;;11.45;3.30;;;;;;;18.55;61.32;101373.69;5042447;28;20531;-74
2022/07/27 06:40:29;;;;;;;10.63;2.85;;;;;;;18.68;61.62;101375.28;5022935;28;20388;-69
2022/07/27 06:42:57;;;;;;;11.77;3.13;;;;;;;18.74;61.20;101376.69;5019230;28;20407;-70
2022/07/27 06:45:25;;;;;;;11.88;3.20;;;;;;;18.61;60.81;101372.28;5025375;28;20080;-72
2022/07/27 06:47:52;;;;;;;10.48;3.03;;;;;;;18.70;60.82;101381.34;5019058;28;20049;-72
2022/07/27 06:50:20;;;;;;;14.95;3.40;;;;;;;18.23;61.76;101377.38;5027164;28;20042;-71
2022/07/27 06:52:48;;;;;;;12.90;3.22;;;;;;;18.45;61.83;101374.16;5025710;28;20128;-70
2022/07/27 06:55:16;;;;;;;14.02;3.42;;;;;;;18.83;61.58;101369.78;5027177;28;20678;-68
2022/07/27 06:57:45;;;;;;;13.70;3.13;;;;;;;19.15;59.68;101376.31;5024259;28;20531;-67
2022/07/27 07:00:13;;;;;;;12.88;3.85;;;;;;;19.07;59.41;101380.06;5031024;28;20416;-68
2022/07/27 07:02:58;;;;;;;13.43;3.78;;;;;;;19.20;59.05;101370.47;5023813;28;20519;-68
2022/07/27 07:05:25;;;;;;;20.60;5.82;;;;;;;19.11;59.09;101380.97;5030900;28;20050;-69
2022/07/27 07:07:52;;;;;;;14.35;3.63;;;;;;;19.30;58.99;101383.94;5035248;28;20056;-69
2022/07/27 07:10:21;;;;;;;13.55;3.08;;;;;;;19.59;58.52;101382.78;5033153;28;20053;-70
2022/07/27 07:12:54;;;;;;;9.80;3.05;;;;;;;19.83;57.94;101377.03;5036440;28;20048;-68
2022/07/27 07:15:23;;;;;;;19.10;3.63;;;;;;;19.99;57.17;101383.44;5033611;28;20065;-68
2022/07/27 07:17:52;;;;;;;11.85;3.53;;;;;;;20.03;56.71;101378.75;5032370;28;20400;-70
2022/07/27 07:20:19;;;;;;;14.80;3.90;;;;;;;19.89;56.54;101376.38;5042815;28;20048;-69
2022/07/27 07:22:46;;;;;;;17.67;4.10;;;;;;;19.83;56.38;101377.84;5035085;28;20049;-69
2022/07/27 07:25:14;;;;;;;13.85;3.90;;;;;;;19.81;57.33;101380.19;5031496;28;20080;-69
2022/07/27 07:27:41;;;;;;;12.80;3.55;;;;;;;19.87;56.91;101377.94;5016476;28;20052;-70
2022/07/27 07:30:09;;;;;;;14.82;3.90;;;;;;;20.03;57.00;101381.56;5006891;28;20050;-69
2022/07/27 07:32:36;;;;;;;13.38;3.40;;;;;;;20.11;56.18;101386.16;5008090;28;20542;-70
2022/07/27 07:35:05;;;;;;;17.63;3.80;;;;;;;20.18;56.59;101389.16;5029329;28;20050;-69
2022/07/27 07:37:33;;;;;;;12.80;3.70;;;;;;;20.13;56.42;101373.44;5036651;28;20042;-69
2022/07/27 07:40:01;;;;;;;12.52;3.97;;;;;;;20.20;56.40;101383.19;5021633;28;20057;-69
2022/07/27 07:42:56;;;;;;;11.48;3.05;;;;;;;21.10;55.90;101375.31;5019323;28;20997;-58
2022/07/27 07:45:25;;;;;;;13.88;3.70;;;;;;;21.20;53.85;101386.75;5019551;28;20513;-75
2022/07/27 07:47:53;;;;;;;10.93;4.10;;;;;;;20.99;54.37;101380.69;5033426;28;20057;-74
2022/07/27 07:50:21;;;;;;;14.32;4.53;;;;;;;20.92;54.93;101374.09;5039294;28;20057;-74
2022/07/27 07:52:50;;;;;;;17.83;4.30;;;;;;;20.99;54.41;101369.47;5034526;28;20057;-71
2022/07/27 07:55:19;;;;;;;15.95;4.22;;;;;;;21.29;54.37;101377.31;5036440;28;20040;-71
2022/07/27 07:57:47;;;;;;;16.52;4.25;;;;;;;21.22;53.44;101372.34;5035954;28;20142;-71
2022/07/27 08:00:17;;;;;;;17.00;3.92;;;;;;;21.48;53.93;101377.31;5038889;28;20056;-71
2022/07/27 08:02:47;;;;;;;14.95;4.10;;;;;;;21.56;52.78;101371.44;5032034;28;20111;-72
2022/07/27 08:05:15;;;;;;;17.42;3.20;;;;;;;21.89;52.36;101377.31;5023178;28;20054;-70
2022/07/27 08:07:44;;;;;;;13.13;4.30;;;;;;;21.86;50.89;101378.03;5030933;28;20045;-71
2022/07/27 08:10:13;;;;;;;14.27;4.00;;;;;;;21.62;52.30;101383.97;5040494;28;20053;-71
2022/07/27 08:12:43;;;;;;;14.63;4.85;;;;;;;21.43;52.24;101369.97;5031116;28;20553;-72
2022/07/27 08:15:11;;;;;;;;;;;;;;;21.44;52.73;101371.63;5033927;28;20054;-71
2022/07/27 08:17:39;;;;;;;24.05;4.47;;;;;;;21.37;52.91;101365.88;5032710;28;19929;-70
2022/07/27 08:20:08;;;;;;;11.82;4.30;;;;;;;21.21;52.97;101365.97;5040068;28;20052;-71
2022/07/27 08:22:39;;;;;;;9.98;4.03;;;;;;;21.12;53.33;101376.56;5022132;28;20064;-71
2022/07/27 08:25:07;;;;;;;14.10;4.30;;;;;;;21.35;52.55;101373.84;5042498;28;20065;-71
2022/07/27 08:27:35;;;;;;;11.07;4.00;;;;;;;21.51;52.09;101370.94;5037248;28;20408;-71
2022/07/27 08:30:09;;;;;;;11.25;4.15;;;;;;;21.57;52.29;101367.44;5040489;28;20053;-71
2022/07/27 08:32:50;;;;;;;15.73;4.05;;;;;;;21.83;51.57;101366.75;5024809;28;20042;-71
2022/07/27 08:35:18;;;;;;;12.15;4.07;;;;;;;21.76;51.42;101375.03;5020440;28;20048;-71
2022/07/27 08:37:45;;;;;;;11.10;4.10;;;;;;;21.36;53.05;101372.66;5017562;28;20507;-71
2022/07/27 08:40:14;;;;;;;14.98;4.65;;;;;;;21.38;52.54;101363.88;5028675;28;20048;-71
2022/07/27 08:43:02;;;;;;;15.70;5.35;;;;;;;21.13;52.88;101369.00;5013331;28;20520;-71
2022/07/27 08:45:32;;;;;;;13.95;4.30;;;;;;;21.04;53.16;101360.00;5040307;28;20049;-72
2022/07/27 08:48:00;;;;;;;15.88;4.20;;;;;;;21.07;53.10;101365.66;5044356;28;20060;-71
2022/07/27 08:50:29;;;;;;;14.77;4.80;;;;;;;21.24;52.47;101359.63;5024952;28;20081;-71
2022/07/27 08:53:03;;;;;;;11.70;4.25;;;;;;;21.44;52.27;101366.00;5030522;28;20056;-71
2022/07/27 08:55:32;;;;;;;14.15;4.75;;;;;;;21.42;52.54;101364.75;5040120;28;20416;-71
2022/07/27 08:57:59;;;;;;;14.00;4.33;;;;;;;21.43;52.29;101366.38;5045467;28;20050;-70
2022/07/27 09:00:31;;;;;;;13.57;4.22;;;;;;;21.53;52.26;101368.59;5045348;28;20044;-72
2022/07/27 09:02:59;;;;;;;12.75;4.10;;;;;;;21.52;51.91;101369.75;5040239;28;20054;-71
2022/07/27 09:05:26;;;;;;;13.85;4.15;;;;;;;21.23;52.60;101366.38;5029914;28;20670;-71
2022/07/27 09:08:14;;;;;;;11.60;4.30;;;;;;;21.24;52.25;101367.19;5046278;28;20054;-71
2022/07/27 09:10:42;;;;;;;11.57;4.55;;;;;;;21.39;52.16;101365.50;5042034;28;20508;-70
2022/07/27 09:13:34;;;;;;;13.00;5.78;;;;;;;21.56;52.47;101367.81;5040416;28;20041;-71
2022/07/27 09:16:06;;;;;;;11.23;4.20;;;;;;;21.66;50.75;101359.63;5062493;28;20508;-71
2022/07/27 09:18:59;;;;;;;14.50;3.97;;;;;;;21.55;50.46;101364.22;5035399;28;20515;-71
2022/07/27 09:21:27;;;;;;;15.05;3.83;;;;;;;21.57;50.84;101359.03;5038412;28;20052;-71
2022/07/27 09:24:05;;;;;;;12.27;3.40;;;;;;;21.68;50.92;101360.06;5061266;28;20519;-71
2022/07/27 09:27:01;;;;;;;15.70;3.97;;;;;;;21.82;50.20;101365.13;5030629;28;20847;-71
2022/07/27 09:29:33;;;;;;;16.17;3.80;;;;;;;21.95;49.92;101358.97;5036433;28;20050;-71
2022/07/27 09:32:13;;;;;;;10.00;3.50;;;;;;;21.37;50.20;101362.25;5038946;28;20053;-71
2022/07/27 09:34:40;;;;;;;9.00;3.53;;;;;;;21.09;51.14;101363.31;5023736;28;20057;-73
2022/07/27 09:37:11;;;;;;;12.82;3.20;;;;;;;21.17;50.70;101367.06;5028299;28;20803;-72
2022/07/27 09:39:38;;;;;;;15.98;3.65;;;;;;;21.40;50.84;101361.50;5041653;28;20064;-72
2022/07/27 09:42:15;;;;;;;11.93;3.30;;;;;;;21.66;50.51;101361.59;5037257;28;20041;-71
2022/07/27 09:45:02;;;;;;;9.77;2.80;;;;;;;21.92;49.36;101358.91;5031515;28;20049;-72
2022/07/27 09:47:30;;;;;;;12.23;3.10;;;;;;;21.84;49.47;101351.56;5059721;28;20064;-73
2022/07/27 09:50:21;;;;;;;16.25;3.50;;;;;;;21.64;49.82;101359.19;5035529;28;20051;-73
2022/07/27 09:52:48;;;;;;;12.75;3.25;;;;;;;21.87;49.43;101362.84;5036344;28;20040;-72
2022/07/27 09:55:19;;;;;;;11.63;3.45;;;;;;;21.78;49.34;101359.47;5050214;28;20550;-72
2022/07/27 09:57:56;;;;;;;7.40;2.65;;;;;;;21.91;48.92;101355.31;5043005;28;20068;-72
2022/07/27 10:00:26;;;;;;;11.68;3.00;;;;;;;21.74;49.71;101354.97;5040469;28;20048;-73
2022/07/27 10:02:53;;;;;;;10.63;2.90;;;;;;;21.85;48.59;101341.94;5027200;28;20478;-70
2022/07/27 10:05:22;;;;;;;10.07;2.80;;;;;;;21.87;48.43;101346.00;5036975;28;20057;-71
2022/07/27 10:07:52;;;;;;;11.10;3.30;;;;;;;21.97;48.53;101342.56;5030081;28;20045;-72
2022/07/27 10:10:21;;;;;;;11.07;3.38;;;;;;;22.06;47.73;101345.94;5026595;28;20060;-69
2022/07/27 10:12:48;;;;;;;8.23;2.92;;;;;;;21.93;47.25;101341.69;5039430;28;20042;-70
2022/07/27 10:15:22;;;;;;;10.57;3.05;;;;;;;21.68;48.02;101340.44;5040570;28;20056;-70
2022/07/27 10:18:00;;;;;;;12.98;2.85;;;;;;;21.47;48.73;101347.63;5037243;28;20060;-69
2022/07/27 10:20:32;;;;;;;15.05;2.88;;;;;;;21.59;49.01;101341.84;5035671;28;20046;-69
2022/07/27 10:22:59;;;;;;;9.60;2.92;;;;;;;21.92;48.44;101334.47;5028042;28;20052;-70
2022/07/27 10:25:29;;;;;;;8.90;2.75;;;;;;;22.20;47.83;101331.31;5031902;28;20500;-67
2022/07/27 10:28:17;;;;;;;11.13;2.38;;;;;;;22.61;46.69;101335.19;5032962;28;20048;-69
2022/07/27 10:30:45;;;;;;;7.22;2.25;;;;;;;22.30;45.08;101333.47;5030665;28;20369;-68
2022/07/27 10:33:40;;;;;;;6.20;2.10;;;;;;;22.21;44.61;101339.34;5043900;28;20523;-69
2022/07/27 10:36:31;;;;;;;9.68;2.10;;;;;;;22.23;44.55;101330.56;5017898;28;20046;-64
2022/07/27 10:39:02;;;;;;;8.27;1.95;;;;;;;22.18;43.88;101328.06;5017121;28;20058;-69
2022/07/27 10:41:38;;;;;;;9.45;2.60;;;;;;;22.29;44.30;101327.06;5033074;28;20056;-70
2022/07/27 10:44:20;;;;;;;11.43;2.75;;;;;;;22.54;43.76;101324.66;5044691;28;20057;-68
2022/07/27 10:46:52;;;;;;;8.00;2.15;;;;;;;22.42;43.80;101316.41;5031371;28;20050;-74
2022/07/27 10:49:24;;;;;;;8.52;2.05;;;;;;;22.43;43.36;101328.47;5042038;28;20042;-68
2022/07/27 10:51:52;;;;;;;8.68;2.10;;;;;;;22.33;43.58;101322.28;5031707;28;20045;-74
2022/07/27 10:54:35;;;;;;;5.53;1.98;;;;;;;22.23;43.45;101325.75;5031166;28;20064;-74
2022/07/27 10:57:05;;;;;;;8.13;2.17;;;;;;;22.43;42.86;101317.22;5030314;28;20645;-68
2022/07/27 10:59:38;;;;;;;10.95;2.40;;;;;;;22.50;42.35;101314.53;5026219;28;20060;-65
2022/07/27 11:02:45;;;;;;;5.60;2.03;;;;;;;22.59;42.46;101312.28;5032331;28;20041;-74
2022/07/27 11:05:12;;;;;;;10.05;2.10;;;;;;;22.62;41.45;101305.91;5044063;28;20052;-73
2022/07/27 11:07:59;;;;;;;13.55;2.50;;;;;;;22.96;42.96;101299.13;5040144;28;20385;-74
2022/07/27 11:10:47;;;;;;;8.65;2.15;;;;;;;22.95;40.79;101308.75;5039469;28;20079;-67
2022/07/27 11:13:19;;;;;;;10.43;2.42;;;;;;;22.99;41.23;101295.56;5037203;28;20052;-67
2022/07/27 11:16:05;;;;;;;8.93;2.25;;;;;;;23.10;41.05;101302.13;5068845;28;20409;-73
2022/07/27 11:18:53;;;;;;;10.50;2.20;;;;;;;23.11;41.74;101293.28;5037229;28;20492;-73
2022/07/27 11:21:29;;;;;;;15.43;3.50;;;;;;;23.40;41.09;101283.19;5028779;28;20049;-67
2022/07/27 11:24:02;;;;;;;10.82;3.47;;;;;;;23.37;40.91;101289.59;5044505;28;20037;-68
2022/07/27 11:26:36;;;;;;;12.73;2.55;;;;;;;23.02;40.88;101287.16;5026592;28;20068;-68
2022/07/27 11:29:06;;;;;;;16.30;2.90;;;;;;;22.83;40.50;101287.34;5036339;28;20054;-68
2022/07/27 11:31:36;;;;;;;10.32;2.42;;;;;;;22.92;41.22;101284.22;5040771;28;20056;-68
2022/07/27 11:34:31;;;;;;;13.90;2.60;;;;;;;22.82;40.80;101294.13;5034526;28;20046;-67